sensor_id;sensor_type;location;lat;lon;timestamp;P1;durP1;ratioP1;P2;durP2;ratioP2
38312;SDS011;24114;52.260;6.714;2022-08-27T00:01:38;4.97;;;1.08;;
38312;SDS011;24114;52.260;6.714;2022-08-27T00:04:08;6.68;;;1.10;;
38312;SDS011;24114;52.260;6.714;2022-08-27T00:06:36;3.13;;;0.90;;
38312;SDS011;24114;52.260;6.714;2022-08-27T00:09:03;2.78;;;0.50;;
38312;SDS011;24114;52.260;6.714;2022-08-27T00:11:31;4.05;;;0.90;;
38312;SDS011;24114;52.260;6.714;2022-08-27T00:14:00;3.60;;;0.50;;
38312;SDS011;24114;52.260;6.714;2022-08-27T00:16:28;3.72;;;0.70;;
38312;SDS011;24114;52.260;6.714;2022-08-27T00:18:56;3.25;;;0.88;;
38312;SDS011;24114;52.260;6.714;2022-08-27T00:21:25;3.25;;;0.88;;
38312;SDS011;24114;52.260;6.714;2022-08-27T00:23:53;3.00;;;0.80;;
38312;SDS011;24114;52.260;6.714;2022-08-27T00:26:21;4.05;;;0.75;;
38312;SDS011;24114;52.260;6.714;2022-08-27T00:28:49;2.53;;;0.50;;
38312;SDS011;24114;52.260;6.714;2022-08-27T00:31:17;4.22;;;0.70;;
38312;SDS011;24114;52.260;6.714;2022-08-27T00:33:52;3.90;;;0.73;;
38312;SDS011;24114;52.260;6.714;2022-08-27T00:36:20;3.67;;;0.60;;
38312;SDS011;24114;52.260;6.714;2022-08-27T00:38:49;6.87;;;1.30;;
38312;SDS011;24114;52.260;6.714;2022-08-27T00:41:19;4.32;;;1.00;;
38312;SDS011;24114;52.260;6.714;2022-08-27T00:43:48;2.83;;;0.68;;
38312;SDS011;24114;52.260;6.714;2022-08-27T00:46:21;3.72;;;0.68;;
38312;SDS011;24114;52.260;6.714;2022-08-27T00:48:53;2.70;;;0.80;;
38312;SDS011;24114;52.260;6.714;2022-08-27T00:51:23;3.78;;;0.80;;
38312;SDS011;24114;52.260;6.714;2022-08-27T00:53:54;4.30;;;0.95;;
38312;SDS011;24114;52.260;6.714;2022-08-27T00:56:25;3.97;;;0.98;;
38312;SDS011;24114;52.260;6.714;2022-08-27T00:58:54;3.42;;;0.82;;
38312;SDS011;24114;52.260;6.714;2022-08-27T01:01:23;3.03;;;0.63;;
38312;SDS011;24114;52.260;6.714;2022-08-27T01:03:54;3.05;;;0.60;;
38312;SDS011;24114;52.260;6.714;2022-08-27T01:06:24;3.67;;;0.60;;
38312;SDS011;24114;52.260;6.714;2022-08-27T01:08:59;6.95;;;1.27;;
38312;SDS011;24114;52.260;6.714;2022-08-27T01:11:29;3.80;;;0.60;;
38312;SDS011;24114;52.260;6.714;2022-08-27T01:13:57;3.85;;;0.80;;
38312;SDS011;24114;52.260;6.714;2022-08-27T01:16:27;3.15;;;0.88;;
38312;SDS011;24114;52.260;6.714;2022-08-27T01:18:57;2.25;;;0.68;;
38312;SDS011;24114;52.260;6.714;2022-08-27T01:21:27;2.75;;;0.73;;
38312;SDS011;24114;52.260;6.714;2022-08-27T01:24:00;3.10;;;0.85;;
38312;SDS011;24114;52.260;6.714;2022-08-27T01:26:31;3.92;;;1.27;;
38312;SDS011;24114;52.260;6.714;2022-08-27T01:28:59;2.63;;;0.80;;
38312;SDS011;24114;52.260;6.714;2022-08-27T01:31:27;2.05;;;0.60;;
38312;SDS011;24114;52.260;6.714;2022-08-27T01:33:56;3.13;;;0.77;;
38312;SDS011;24114;52.260;6.714;2022-08-27T01:36:24;4.53;;;1.00;;
38312;SDS011;24114;52.260;6.714;2022-08-27T01:38:52;5.15;;;1.00;;
38312;SDS011;24114;52.260;6.714;2022-08-27T01:41:22;3.17;;;0.80;;
38312;SDS011;24114;52.260;6.714;2022-08-27T01:43:52;3.75;;;0.98;;
38312;SDS011;24114;52.260;6.714;2022-08-27T01:46:21;3.13;;;0.98;;
38312;SDS011;24114;52.260;6.714;2022-08-27T01:48:49;3.78;;;0.80;;
38312;SDS011;24114;52.260;6.714;2022-08-27T01:51:17;2.40;;;0.68;;
38312;SDS011;24114;52.260;6.714;2022-08-27T01:53:45;4.75;;;1.00;;
38312;SDS011;24114;52.260;6.714;2022-08-27T01:56:14;3.38;;;0.90;;
38312;SDS011;24114;52.260;6.714;2022-08-27T01:58:41;2.83;;;0.85;;
38312;SDS011;24114;52.260;6.714;2022-08-27T02:01:12;2.90;;;0.68;;
38312;SDS011;24114;52.260;6.714;2022-08-27T02:03:42;3.70;;;0.88;;
38312;SDS011;24114;52.260;6.714;2022-08-27T02:06:12;4.63;;;1.15;;
38312;SDS011;24114;52.260;6.714;2022-08-27T02:08:40;3.50;;;1.00;;
38312;SDS011;24114;52.260;6.714;2022-08-27T02:11:07;2.78;;;0.73;;
38312;SDS011;24114;52.260;6.714;2022-08-27T02:13:35;2.33;;;0.95;;
38312;SDS011;24114;52.260;6.714;2022-08-27T02:16:04;4.90;;;1.10;;
38312;SDS011;24114;52.260;6.714;2022-08-27T02:18:35;3.80;;;1.00;;
38312;SDS011;24114;52.260;6.714;2022-08-27T02:21:06;4.68;;;1.27;;
38312;SDS011;24114;52.260;6.714;2022-08-27T02:23:34;4.32;;;0.98;;
38312;SDS011;24114;52.260;6.714;2022-08-27T02:26:02;3.80;;;0.90;;
38312;SDS011;24114;52.260;6.714;2022-08-27T02:28:30;3.97;;;1.05;;
38312;SDS011;24114;52.260;6.714;2022-08-27T02:30:57;3.75;;;1.00;;
38312;SDS011;24114;52.260;6.714;2022-08-27T02:33:25;2.83;;;0.90;;
38312;SDS011;24114;52.260;6.714;2022-08-27T02:35:55;3.80;;;0.98;;
38312;SDS011;24114;52.260;6.714;2022-08-27T02:38:22;2.22;;;0.70;;
38312;SDS011;24114;52.260;6.714;2022-08-27T02:40:51;3.85;;;1.00;;
38312;SDS011;24114;52.260;6.714;2022-08-27T02:43:19;3.38;;;1.02;;
38312;SDS011;24114;52.260;6.714;2022-08-27T02:45:50;3.47;;;1.03;;
38312;SDS011;24114;52.260;6.714;2022-08-27T02:48:18;2.42;;;0.90;;
38312;SDS011;24114;52.260;6.714;2022-08-27T02:50:46;3.57;;;1.10;;
38312;SDS011;24114;52.260;6.714;2022-08-27T02:53:15;2.80;;;0.88;;
38312;SDS011;24114;52.260;6.714;2022-08-27T02:55:43;3.17;;;1.02;;
38312;SDS011;24114;52.260;6.714;2022-08-27T02:58:12;4.35;;;1.10;;
38312;SDS011;24114;52.260;6.714;2022-08-27T03:00:42;3.70;;;1.23;;
38312;SDS011;24114;52.260;6.714;2022-08-27T03:03:09;4.40;;;1.75;;
38312;SDS011;24114;52.260;6.714;2022-08-27T03:05:37;2.92;;;1.17;;
38312;SDS011;24114;52.260;6.714;2022-08-27T03:08:05;4.63;;;1.70;;
38312;SDS011;24114;52.260;6.714;2022-08-27T03:10:35;4.90;;;1.63;;
38312;SDS011;24114;52.260;6.714;2022-08-27T03:13:03;3.95;;;1.60;;
38312;SDS011;24114;52.260;6.714;2022-08-27T03:15:30;5.20;;;1.85;;
38312;SDS011;24114;52.260;6.714;2022-08-27T03:17:58;3.63;;;1.70;;
38312;SDS011;24114;52.260;6.714;2022-08-27T03:20:45;5.25;;;1.90;;
38312;SDS011;24114;52.260;6.714;2022-08-27T03:23:15;5.13;;;2.25;;
38312;SDS011;24114;52.260;6.714;2022-08-27T03:25:46;5.40;;;2.03;;
38312;SDS011;24114;52.260;6.714;2022-08-27T03:28:17;5.20;;;1.90;;
38312;SDS011;24114;52.260;6.714;2022-08-27T03:30:49;6.75;;;2.38;;
38312;SDS011;24114;52.260;6.714;2022-08-27T03:33:17;3.97;;;2.00;;
38312;SDS011;24114;52.260;6.714;2022-08-27T03:35:45;4.40;;;2.30;;
38312;SDS011;24114;52.260;6.714;2022-08-27T03:38:17;5.03;;;2.28;;
38312;SDS011;24114;52.260;6.714;2022-08-27T03:40:46;5.30;;;2.25;;
38312;SDS011;24114;52.260;6.714;2022-08-27T03:43:14;4.20;;;2.03;;
38312;SDS011;24114;52.260;6.714;2022-08-27T03:45:43;5.80;;;2.78;;
38312;SDS011;24114;52.260;6.714;2022-08-27T03:48:26;6.47;;;2.17;;
38312;SDS011;24114;52.260;6.714;2022-08-27T03:50:54;6.03;;;2.70;;
38312;SDS011;24114;52.260;6.714;2022-08-27T03:53:21;4.38;;;2.72;;
38312;SDS011;24114;52.260;6.714;2022-08-27T03:55:51;4.13;;;2.22;;
38312;SDS011;24114;52.260;6.714;2022-08-27T03:58:19;5.00;;;2.40;;
38312;SDS011;24114;52.260;6.714;2022-08-27T04:00:46;6.18;;;2.40;;
38312;SDS011;24114;52.260;6.714;2022-08-27T04:03:14;5.47;;;2.47;;
38312;SDS011;24114;52.260;6.714;2022-08-27T04:05:42;4.68;;;2.70;;
38312;SDS011;24114;52.260;6.714;2022-08-27T04:08:11;4.17;;;2.30;;
38312;SDS011;24114;52.260;6.714;2022-08-27T04:10:39;4.55;;;2.53;;
38312;SDS011;24114;52.260;6.714;2022-08-27T04:13:08;5.38;;;2.60;;
38312;SDS011;24114;52.260;6.714;2022-08-27T04:15:36;4.20;;;1.98;;
38312;SDS011;24114;52.260;6.714;2022-08-27T04:18:09;3.35;;;2.22;;
38312;SDS011;24114;52.260;6.714;2022-08-27T04:20:37;4.75;;;2.20;;
38312;SDS011;24114;52.260;6.714;2022-08-27T04:23:05;5.45;;;2.40;;
38312;SDS011;24114;52.260;6.714;2022-08-27T04:25:32;5.65;;;2.58;;
38312;SDS011;24114;52.260;6.714;2022-08-27T04:28:00;4.35;;;2.30;;
38312;SDS011;24114;52.260;6.714;2022-08-27T04:30:29;5.38;;;2.42;;
38312;SDS011;24114;52.260;6.714;2022-08-27T04:32:58;3.67;;;2.45;;
38312;SDS011;24114;52.260;6.714;2022-08-27T04:35:25;3.88;;;2.33;;
38312;SDS011;24114;52.260;6.714;2022-08-27T04:37:53;4.82;;;2.17;;
38312;SDS011;24114;52.260;6.714;2022-08-27T04:40:21;3.75;;;2.10;;
38312;SDS011;24114;52.260;6.714;2022-08-27T04:43:08;5.65;;;2.55;;
38312;SDS011;24114;52.260;6.714;2022-08-27T04:45:43;4.25;;;2.38;;
38312;SDS011;24114;52.260;6.714;2022-08-27T04:48:11;4.20;;;2.33;;
38312;SDS011;24114;52.260;6.714;2022-08-27T04:50:40;5.18;;;2.60;;
38312;SDS011;24114;52.260;6.714;2022-08-27T04:53:10;5.28;;;2.88;;
38312;SDS011;24114;52.260;6.714;2022-08-27T04:55:41;5.35;;;2.42;;
38312;SDS011;24114;52.260;6.714;2022-08-27T04:58:09;4.93;;;2.70;;
38312;SDS011;24114;52.260;6.714;2022-08-27T05:00:42;6.22;;;2.83;;
38312;SDS011;24114;52.260;6.714;2022-08-27T05:03:14;4.60;;;2.58;;
38312;SDS011;24114;52.260;6.714;2022-08-27T05:05:42;5.22;;;2.33;;
38312;SDS011;24114;52.260;6.714;2022-08-27T05:08:10;4.70;;;2.50;;
38312;SDS011;24114;52.260;6.714;2022-08-27T05:10:39;4.07;;;2.47;;
38312;SDS011;24114;52.260;6.714;2022-08-27T05:13:07;5.35;;;2.70;;
38312;SDS011;24114;52.260;6.714;2022-08-27T05:15:35;3.95;;;2.60;;
38312;SDS011;24114;52.260;6.714;2022-08-27T05:18:05;5.22;;;3.00;;
38312;SDS011;24114;52.260;6.714;2022-08-27T05:20:39;5.88;;;3.20;;
38312;SDS011;24114;52.260;6.714;2022-08-27T05:23:08;5.72;;;2.85;;
38312;SDS011;24114;52.260;6.714;2022-08-27T05:25:36;4.20;;;2.97;;
38312;SDS011;24114;52.260;6.714;2022-08-27T05:28:04;5.10;;;3.00;;
38312;SDS011;24114;52.260;6.714;2022-08-27T05:30:34;5.65;;;3.60;;
38312;SDS011;24114;52.260;6.714;2022-08-27T05:33:04;6.93;;;3.42;;
38312;SDS011;24114;52.260;6.714;2022-08-27T05:35:35;5.43;;;3.13;;
38312;SDS011;24114;52.260;6.714;2022-08-27T05:38:06;5.85;;;3.92;;
38312;SDS011;24114;52.260;6.714;2022-08-27T05:40:35;5.78;;;3.90;;
38312;SDS011;24114;52.260;6.714;2022-08-27T05:43:02;8.20;;;3.78;;
38312;SDS011;24114;52.260;6.714;2022-08-27T05:45:30;5.73;;;3.63;;
38312;SDS011;24114;52.260;6.714;2022-08-27T05:47:58;7.45;;;4.07;;
38312;SDS011;24114;52.260;6.714;2022-08-27T05:50:27;6.43;;;4.10;;
38312;SDS011;24114;52.260;6.714;2022-08-27T05:52:55;8.00;;;4.10;;
38312;SDS011;24114;52.260;6.714;2022-08-27T05:55:23;7.07;;;4.38;;
38312;SDS011;24114;52.260;6.714;2022-08-27T05:57:50;5.45;;;3.45;;
38312;SDS011;24114;52.260;6.714;2022-08-27T06:00:18;8.32;;;4.85;;
38312;SDS011;24114;52.260;6.714;2022-08-27T06:03:03;7.28;;;4.20;;
38312;SDS011;24114;52.260;6.714;2022-08-27T06:05:32;6.40;;;4.13;;
38312;SDS011;24114;52.260;6.714;2022-08-27T06:08:00;7.93;;;4.57;;
38312;SDS011;24114;52.260;6.714;2022-08-27T06:10:28;6.53;;;4.05;;
38312;SDS011;24114;52.260;6.714;2022-08-27T06:12:56;6.73;;;4.13;;
38312;SDS011;24114;52.260;6.714;2022-08-27T06:15:24;8.00;;;4.20;;
38312;SDS011;24114;52.260;6.714;2022-08-27T06:17:51;5.97;;;3.78;;
38312;SDS011;24114;52.260;6.714;2022-08-27T06:20:19;6.05;;;3.85;;
38312;SDS011;24114;52.260;6.714;2022-08-27T06:22:49;8.70;;;3.95;;
38312;SDS011;24114;52.260;6.714;2022-08-27T06:25:17;4.57;;;3.28;;
38312;SDS011;24114;52.260;6.714;2022-08-27T06:27:45;6.60;;;3.57;;
38312;SDS011;24114;52.260;6.714;2022-08-27T06:30:12;5.35;;;3.78;;
38312;SDS011;24114;52.260;6.714;2022-08-27T06:32:42;6.10;;;3.25;;
38312;SDS011;24114;52.260;6.714;2022-08-27T06:35:10;4.60;;;3.38;;
38312;SDS011;24114;52.260;6.714;2022-08-27T06:37:38;4.93;;;3.10;;
38312;SDS011;24114;52.260;6.714;2022-08-27T06:40:08;4.22;;;2.72;;
38312;SDS011;24114;52.260;6.714;2022-08-27T06:42:37;3.83;;;2.58;;
38312;SDS011;24114;52.260;6.714;2022-08-27T06:45:05;5.93;;;2.92;;
38312;SDS011;24114;52.260;6.714;2022-08-27T06:47:34;5.28;;;2.60;;
38312;SDS011;24114;52.260;6.714;2022-08-27T06:50:02;5.75;;;3.28;;
38312;SDS011;24114;52.260;6.714;2022-08-27T06:52:30;5.00;;;2.30;;
38312;SDS011;24114;52.260;6.714;2022-08-27T06:54:58;3.35;;;2.25;;
38312;SDS011;24114;52.260;6.714;2022-08-27T06:57:27;4.05;;;1.73;;
38312;SDS011;24114;52.260;6.714;2022-08-27T06:59:54;4.28;;;1.77;;
38312;SDS011;24114;52.260;6.714;2022-08-27T07:02:22;4.00;;;1.67;;
38312;SDS011;24114;52.260;6.714;2022-08-27T07:04:51;3.72;;;1.60;;
38312;SDS011;24114;52.260;6.714;2022-08-27T07:07:21;4.20;;;1.35;;
38312;SDS011;24114;52.260;6.714;2022-08-27T07:10:01;3.67;;;1.38;;
38312;SDS011;24114;52.260;6.714;2022-08-27T07:12:31;2.45;;;1.10;;
38312;SDS011;24114;52.260;6.714;2022-08-27T07:14:58;3.80;;;1.30;;
38312;SDS011;24114;52.260;6.714;2022-08-27T07:17:26;3.40;;;1.20;;
38312;SDS011;24114;52.260;6.714;2022-08-27T07:19:54;2.17;;;0.67;;
38312;SDS011;24114;52.260;6.714;2022-08-27T07:22:21;4.68;;;1.17;;
38312;SDS011;24114;52.260;6.714;2022-08-27T07:24:49;4.28;;;0.95;;
38312;SDS011;24114;52.260;6.714;2022-08-27T07:27:18;4.95;;;1.33;;
38312;SDS011;24114;52.260;6.714;2022-08-27T07:29:48;3.65;;;1.20;;
38312;SDS011;24114;52.260;6.714;2022-08-27T07:32:16;4.43;;;1.20;;
38312;SDS011;24114;52.260;6.714;2022-08-27T07:34:43;2.97;;;1.27;;
38312;SDS011;24114;52.260;6.714;2022-08-27T07:37:11;4.00;;;1.20;;
38312;SDS011;24114;52.260;6.714;2022-08-27T07:39:40;3.17;;;1.10;;
38312;SDS011;24114;52.260;6.714;2022-08-27T07:42:07;3.35;;;1.20;;
38312;SDS011;24114;52.260;6.714;2022-08-27T07:44:54;4.80;;;1.30;;
38312;SDS011;24114;52.260;6.714;2022-08-27T07:47:21;3.22;;;1.00;;
38312;SDS011;24114;52.260;6.714;2022-08-27T07:49:49;4.05;;;1.17;;
38312;SDS011;24114;52.260;6.714;2022-08-27T07:52:17;3.03;;;0.90;;
38312;SDS011;24114;52.260;6.714;2022-08-27T07:54:51;11.20;;;0.90;;
38312;SDS011;24114;52.260;6.714;2022-08-27T07:57:19;2.97;;;0.93;;
38312;SDS011;24114;52.260;6.714;2022-08-27T07:59:47;4.13;;;0.98;;
38312;SDS011;24114;52.260;6.714;2022-08-27T08:02:16;4.83;;;1.00;;
38312;SDS011;24114;52.260;6.714;2022-08-27T08:04:43;3.08;;;0.80;;
38312;SDS011;24114;52.260;6.714;2022-08-27T08:07:11;5.25;;;1.00;;
38312;SDS011;24114;52.260;6.714;2022-08-27T08:09:39;3.55;;;0.55;;
38312;SDS011;24114;52.260;6.714;2022-08-27T08:12:07;2.20;;;0.40;;
38312;SDS011;24114;52.260;6.714;2022-08-27T08:14:34;2.08;;;0.50;;
38312;SDS011;24114;52.260;6.714;2022-08-27T08:17:02;3.00;;;0.40;;
38312;SDS011;24114;52.260;6.714;2022-08-27T08:19:37;2.65;;;0.35;;
38312;SDS011;24114;52.260;6.714;2022-08-27T08:22:05;5.60;;;0.70;;
38312;SDS011;24114;52.260;6.714;2022-08-27T08:24:34;2.33;;;0.30;;
38312;SDS011;24114;52.260;6.714;2022-08-27T08:27:02;2.97;;;0.43;;
38312;SDS011;24114;52.260;6.714;2022-08-27T08:29:33;4.47;;;0.40;;
38312;SDS011;24114;52.260;6.714;2022-08-27T08:32:01;2.00;;;0.35;;
38312;SDS011;24114;52.260;6.714;2022-08-27T08:34:29;2.08;;;0.30;;
38312;SDS011;24114;52.260;6.714;2022-08-27T08:36:58;5.20;;;0.40;;
38312;SDS011;24114;52.260;6.714;2022-08-27T08:39:26;1.95;;;0.30;;
38312;SDS011;24114;52.260;6.714;2022-08-27T08:41:55;3.72;;;0.57;;
38312;SDS011;24114;52.260;6.714;2022-08-27T08:44:25;2.33;;;0.52;;
38312;SDS011;24114;52.260;6.714;2022-08-27T08:46:59;1.88;;;0.38;;
38312;SDS011;24114;52.260;6.714;2022-08-27T08:49:31;3.60;;;0.63;;
38312;SDS011;24114;52.260;6.714;2022-08-27T08:52:09;3.67;;;0.43;;
38312;SDS011;24114;52.260;6.714;2022-08-27T08:54:57;2.25;;;0.40;;
38312;SDS011;24114;52.260;6.714;2022-08-27T08:57:32;3.10;;;0.70;;
38312;SDS011;24114;52.260;6.714;2022-08-27T09:00:04;4.22;;;0.50;;
38312;SDS011;24114;52.260;6.714;2022-08-27T09:02:35;4.23;;;0.50;;
38312;SDS011;24114;52.260;6.714;2022-08-27T09:05:04;2.77;;;0.40;;
38312;SDS011;24114;52.260;6.714;2022-08-27T09:07:36;2.63;;;0.40;;
38312;SDS011;24114;52.260;6.714;2022-08-27T09:10:13;2.90;;;0.30;;
38312;SDS011;24114;52.260;6.714;2022-08-27T09:12:46;2.25;;;0.20;;
38312;SDS011;24114;52.260;6.714;2022-08-27T09:15:15;1.75;;;0.22;;
38312;SDS011;24114;52.260;6.714;2022-08-27T09:17:43;1.83;;;0.40;;
38312;SDS011;24114;52.260;6.714;2022-08-27T09:20:13;2.50;;;0.20;;
38312;SDS011;24114;52.260;6.714;2022-08-27T09:22:47;2.50;;;0.30;;
38312;SDS011;24114;52.260;6.714;2022-08-27T09:25:22;2.38;;;0.35;;
38312;SDS011;24114;52.260;6.714;2022-08-27T09:27:57;2.30;;;0.37;;
38312;SDS011;24114;52.260;6.714;2022-08-27T09:30:28;2.47;;;0.50;;
38312;SDS011;24114;52.260;6.714;2022-08-27T09:32:59;3.35;;;0.52;;
38312;SDS011;24114;52.260;6.714;2022-08-27T09:35:40;3.55;;;0.57;;
38312;SDS011;24114;52.260;6.714;2022-08-27T09:38:11;2.88;;;0.55;;
38312;SDS011;24114;52.260;6.714;2022-08-27T09:40:49;2.28;;;0.38;;
38312;SDS011;24114;52.260;6.714;2022-08-27T09:43:19;2.97;;;0.47;;
38312;SDS011;24114;52.260;6.714;2022-08-27T09:45:50;3.47;;;0.60;;
38312;SDS011;24114;52.260;6.714;2022-08-27T09:48:21;3.40;;;0.40;;
38312;SDS011;24114;52.260;6.714;2022-08-27T09:50:53;3.27;;;0.53;;
38312;SDS011;24114;52.260;6.714;2022-08-27T09:53:24;2.63;;;0.75;;
38312;SDS011;24114;52.260;6.714;2022-08-27T09:55:54;2.70;;;0.30;;
38312;SDS011;24114;52.260;6.714;2022-08-27T09:58:26;2.53;;;0.40;;
38312;SDS011;24114;52.260;6.714;2022-08-27T10:00:58;2.15;;;0.20;;
38312;SDS011;24114;52.260;6.714;2022-08-27T10:03:27;1.92;;;0.30;;
38312;SDS011;24114;52.260;6.714;2022-08-27T10:05:58;2.95;;;0.50;;
38312;SDS011;24114;52.260;6.714;2022-08-27T10:08:32;2.55;;;0.60;;
38312;SDS011;24114;52.260;6.714;2022-08-27T10:11:05;2.05;;;0.30;;
38312;SDS011;24114;52.260;6.714;2022-08-27T10:13:39;1.95;;;0.40;;
38312;SDS011;24114;52.260;6.714;2022-08-27T10:16:24;3.67;;;0.68;;
38312;SDS011;24114;52.260;6.714;2022-08-27T10:19:08;2.47;;;0.40;;
38312;SDS011;24114;52.260;6.714;2022-08-27T10:21:43;3.00;;;0.50;;
38312;SDS011;24114;52.260;6.714;2022-08-27T10:24:17;2.72;;;0.50;;
38312;SDS011;24114;52.260;6.714;2022-08-27T10:26:51;1.73;;;0.30;;
38312;SDS011;24114;52.260;6.714;2022-08-27T10:29:31;2.00;;;0.40;;
38312;SDS011;24114;52.260;6.714;2022-08-27T10:32:07;2.33;;;0.45;;
38312;SDS011;24114;52.260;6.714;2022-08-27T10:34:54;3.05;;;0.30;;
38312;SDS011;24114;52.260;6.714;2022-08-27T10:37:30;2.60;;;0.40;;
38312;SDS011;24114;52.260;6.714;2022-08-27T10:40:08;1.92;;;0.30;;
38312;SDS011;24114;52.260;6.714;2022-08-27T10:42:45;3.15;;;0.50;;
38312;SDS011;24114;52.260;6.714;2022-08-27T10:45:24;2.40;;;0.50;;
38312;SDS011;24114;52.260;6.714;2022-08-27T10:48:02;3.28;;;0.25;;
38312;SDS011;24114;52.260;6.714;2022-08-27T10:50:35;4.75;;;0.50;;
38312;SDS011;24114;52.260;6.714;2022-08-27T10:53:07;2.90;;;0.40;;
38312;SDS011;24114;52.260;6.714;2022-08-27T10:55:39;2.15;;;0.32;;
38312;SDS011;24114;52.260;6.714;2022-08-27T10:58:20;2.10;;;0.28;;
38312;SDS011;24114;52.260;6.714;2022-08-27T11:00:56;3.58;;;0.50;;
38312;SDS011;24114;52.260;6.714;2022-08-27T11:03:29;2.85;;;0.30;;
38312;SDS011;24114;52.260;6.714;2022-08-27T11:05:59;3.30;;;0.40;;
38312;SDS011;24114;52.260;6.714;2022-08-27T11:08:32;2.00;;;0.40;;
38312;SDS011;24114;52.260;6.714;2022-08-27T11:11:07;2.22;;;0.20;;
38312;SDS011;24114;52.260;6.714;2022-08-27T11:13:57;2.53;;;0.33;;
38312;SDS011;24114;52.260;6.714;2022-08-27T11:16:29;2.78;;;0.47;;
38312;SDS011;24114;52.260;6.714;2022-08-27T11:19:02;3.85;;;0.40;;
38312;SDS011;24114;52.260;6.714;2022-08-27T11:21:36;2.70;;;0.30;;
38312;SDS011;24114;52.260;6.714;2022-08-27T11:24:10;2.45;;;0.55;;
38312;SDS011;24114;52.260;6.714;2022-08-27T11:26:44;3.28;;;0.35;;
38312;SDS011;24114;52.260;6.714;2022-08-27T11:29:14;2.85;;;0.40;;
38312;SDS011;24114;52.260;6.714;2022-08-27T11:31:47;5.15;;;0.40;;
38312;SDS011;24114;52.260;6.714;2022-08-27T11:34:20;3.15;;;0.40;;
38312;SDS011;24114;52.260;6.714;2022-08-27T11:36:56;3.35;;;0.47;;
38312;SDS011;24114;52.260;6.714;2022-08-27T11:39:43;4.45;;;0.50;;
38312;SDS011;24114;52.260;6.714;2022-08-27T11:42:21;4.13;;;0.80;;
38312;SDS011;24114;52.260;6.714;2022-08-27T11:44:55;4.70;;;0.60;;
38312;SDS011;24114;52.260;6.714;2022-08-27T11:47:24;2.55;;;0.32;;
38312;SDS011;24114;52.260;6.714;2022-08-27T11:49:53;4.45;;;0.40;;
38312;SDS011;24114;52.260;6.714;2022-08-27T11:52:24;3.10;;;0.82;;
38312;SDS011;24114;52.260;6.714;2022-08-27T11:54:55;2.17;;;0.50;;
38312;SDS011;24114;52.260;6.714;2022-08-27T11:57:36;2.80;;;0.50;;
38312;SDS011;24114;52.260;6.714;2022-08-27T12:00:14;3.10;;;0.43;;
38312;SDS011;24114;52.260;6.714;2022-08-27T12:02:44;3.15;;;0.75;;
38312;SDS011;24114;52.260;6.714;2022-08-27T12:05:23;3.58;;;0.57;;
38312;SDS011;24114;52.260;6.714;2022-08-27T12:08:10;3.85;;;0.45;;
38312;SDS011;24114;52.260;6.714;2022-08-27T12:10:45;3.85;;;0.60;;
38312;SDS011;24114;52.260;6.714;2022-08-27T12:13:21;2.92;;;0.65;;
38312;SDS011;24114;52.260;6.714;2022-08-27T12:15:56;3.10;;;0.50;;
38312;SDS011;24114;52.260;6.714;2022-08-27T12:21:18;2.83;;;0.50;;
38312;SDS011;24114;52.260;6.714;2022-08-27T12:23:59;3.22;;;0.50;;
38312;SDS011;24114;52.260;6.714;2022-08-27T12:26:35;2.03;;;0.40;;
38312;SDS011;24114;52.260;6.714;2022-08-27T12:29:24;2.90;;;0.57;;
38312;SDS011;24114;52.260;6.714;2022-08-27T12:31:59;5.07;;;0.80;;
38312;SDS011;24114;52.260;6.714;2022-08-27T12:34:30;3.40;;;0.80;;
38312;SDS011;24114;52.260;6.714;2022-08-27T12:37:07;4.80;;;0.63;;
38312;SDS011;24114;52.260;6.714;2022-08-27T12:39:36;2.40;;;0.40;;
38312;SDS011;24114;52.260;6.714;2022-08-27T12:42:10;3.47;;;0.55;;
38312;SDS011;24114;52.260;6.714;2022-08-27T12:45:18;2.50;;;0.32;;
38312;SDS011;24114;52.260;6.714;2022-08-27T12:47:47;2.25;;;0.57;;
38312;SDS011;24114;52.260;6.714;2022-08-27T12:50:19;2.00;;;0.47;;
38312;SDS011;24114;52.260;6.714;2022-08-27T12:52:57;3.20;;;0.40;;
38312;SDS011;24114;52.260;6.714;2022-08-27T12:55:32;2.35;;;0.40;;
38312;SDS011;24114;52.260;6.714;2022-08-27T12:58:09;3.60;;;0.55;;
38312;SDS011;24114;52.260;6.714;2022-08-27T13:00:54;3.55;;;0.68;;
38312;SDS011;24114;52.260;6.714;2022-08-27T13:03:29;3.40;;;0.68;;
38312;SDS011;24114;52.260;6.714;2022-08-27T13:05:59;3.83;;;0.60;;
38312;SDS011;24114;52.260;6.714;2022-08-27T13:08:28;5.15;;;0.85;;
38312;SDS011;24114;52.260;6.714;2022-08-27T13:11:05;3.67;;;0.40;;
38312;SDS011;24114;52.260;6.714;2022-08-27T13:13:39;3.78;;;0.52;;
38312;SDS011;24114;52.260;6.714;2022-08-27T13:16:08;3.28;;;0.60;;
38312;SDS011;24114;52.260;6.714;2022-08-27T13:18:36;3.43;;;0.63;;
38312;SDS011;24114;52.260;6.714;2022-08-27T13:21:06;3.17;;;0.47;;
38312;SDS011;24114;52.260;6.714;2022-08-27T13:23:40;4.95;;;0.65;;
38312;SDS011;24114;52.260;6.714;2022-08-27T13:26:10;3.90;;;0.40;;
38312;SDS011;24114;52.260;6.714;2022-08-27T13:28:38;3.97;;;0.50;;
38312;SDS011;24114;52.260;6.714;2022-08-27T13:31:09;5.57;;;0.52;;
38312;SDS011;24114;52.260;6.714;2022-08-27T13:33:37;3.15;;;0.73;;
38312;SDS011;24114;52.260;6.714;2022-08-27T13:36:06;2.78;;;0.63;;
38312;SDS011;24114;52.260;6.714;2022-08-27T13:38:35;4.20;;;0.60;;
38312;SDS011;24114;52.260;6.714;2022-08-27T13:41:06;2.10;;;0.30;;
38312;SDS011;24114;52.260;6.714;2022-08-27T13:43:35;3.83;;;0.40;;
38312;SDS011;24114;52.260;6.714;2022-08-27T13:46:06;3.42;;;0.40;;
38312;SDS011;24114;52.260;6.714;2022-08-27T13:48:40;4.78;;;0.30;;
38312;SDS011;24114;52.260;6.714;2022-08-27T13:51:08;2.58;;;0.30;;
38312;SDS011;24114;52.260;6.714;2022-08-27T13:53:36;3.42;;;0.45;;
38312;SDS011;24114;52.260;6.714;2022-08-27T13:56:26;4.80;;;0.43;;
38312;SDS011;24114;52.260;6.714;2022-08-27T13:59:05;4.18;;;0.47;;
38312;SDS011;24114;52.260;6.714;2022-08-27T14:01:37;4.03;;;0.45;;
38312;SDS011;24114;52.260;6.714;2022-08-27T14:04:18;5.15;;;0.65;;
38312;SDS011;24114;52.260;6.714;2022-08-27T14:06:47;4.35;;;0.68;;
38312;SDS011;24114;52.260;6.714;2022-08-27T14:09:16;2.97;;;0.35;;
38312;SDS011;24114;52.260;6.714;2022-08-27T14:11:47;2.85;;;0.28;;
38312;SDS011;24114;52.260;6.714;2022-08-27T14:14:15;2.65;;;0.45;;
38312;SDS011;24114;52.260;6.714;2022-08-27T14:16:44;4.47;;;0.40;;
38312;SDS011;24114;52.260;6.714;2022-08-27T14:19:25;2.40;;;0.20;;
38312;SDS011;24114;52.260;6.714;2022-08-27T14:22:01;2.25;;;0.22;;
38312;SDS011;24114;52.260;6.714;2022-08-27T14:24:29;3.03;;;0.50;;
38312;SDS011;24114;52.260;6.714;2022-08-27T14:27:01;2.63;;;0.45;;
38312;SDS011;24114;52.260;6.714;2022-08-27T14:29:31;3.53;;;0.55;;
38312;SDS011;24114;52.260;6.714;2022-08-27T14:31:59;2.00;;;0.30;;
38312;SDS011;24114;52.260;6.714;2022-08-27T14:34:28;4.95;;;1.00;;
38312;SDS011;24114;52.260;6.714;2022-08-27T14:36:56;4.13;;;0.40;;
38312;SDS011;24114;52.260;6.714;2022-08-27T14:39:23;6.82;;;0.60;;
38312;SDS011;24114;52.260;6.714;2022-08-27T14:41:52;4.95;;;0.60;;
38312;SDS011;24114;52.260;6.714;2022-08-27T14:44:20;2.33;;;0.45;;
38312;SDS011;24114;52.260;6.714;2022-08-27T14:46:48;3.40;;;0.70;;
38312;SDS011;24114;52.260;6.714;2022-08-27T14:49:17;3.45;;;0.50;;
38312;SDS011;24114;52.260;6.714;2022-08-27T14:51:52;2.77;;;0.47;;
38312;SDS011;24114;52.260;6.714;2022-08-27T14:54:20;3.95;;;0.50;;
38312;SDS011;24114;52.260;6.714;2022-08-27T14:56:54;3.08;;;0.70;;
38312;SDS011;24114;52.260;6.714;2022-08-27T14:59:24;2.47;;;0.40;;
38312;SDS011;24114;52.260;6.714;2022-08-27T15:01:52;3.92;;;0.30;;
38312;SDS011;24114;52.260;6.714;2022-08-27T15:04:22;2.65;;;0.40;;
38312;SDS011;24114;52.260;6.714;2022-08-27T15:06:53;3.50;;;0.20;;
38312;SDS011;24114;52.260;6.714;2022-08-27T15:09:21;2.33;;;0.37;;
38312;SDS011;24114;52.260;6.714;2022-08-27T15:11:48;2.80;;;0.25;;
38312;SDS011;24114;52.260;6.714;2022-08-27T15:14:19;2.85;;;0.57;;